Time;durP1;ratioP1;P1;durP2;ratioP2;P2;SDS_P1;SDS_P2;PMS_P1;PMS_P2;Temp;Humidity;BMP_temperature;BMP_pressure;BME280_temperature;BME280_humidity;BME280_pressure;Samples;Min_cycle;Max_cycle;Signal;HPM_P1;HPM_P2
2023/06/07 00:01:42;;;;;;;15.60;5.70;;;;;;;;;;5023983;28;20096;-78
2023/06/07 00:04:08;;;;;;;13.88;5.65;;;;;;;;;;5027808;28;20518;-78
2023/06/07 00:06:34;;;;;;;12.90;5.57;;;;;;;;;;5033379;28;20523;-78
2023/06/07 00:09:00;;;;;;;14.73;5.10;;;;;;;;;;5034037;28;20088;-78
2023/06/07 00:11:26;;;;;;;12.52;5.57;;;;;;;;;;5024211;28;20085;-78
2023/06/07 00:13:52;;;;;;;12.10;5.40;;;;;;;;;;5039328;28;20041;-78
2023/06/07 00:16:18;;;;;;;12.07;5.25;;;;;;;;;;5038396;28;20099;-78
2023/06/07 00:18:44;;;;;;;11.60;5.10;;;;;;;;;;5033295;28;20045;-78
2023/06/07 00:21:10;;;;;;;12.85;5.53;;;;;;;;;;5026287;28;20375;-78
2023/06/07 00:23:36;;;;;;;14.63;6.03;;;;;;;;;;5013734;28;20057;-78
2023/06/07 00:26:02;;;;;;;14.00;6.20;;;;;;;;;;5014003;28;20042;-78
2023/06/07 00:28:28;;;;;;;11.07;5.50;;;;;;;;;;5027546;28;20551;-78
2023/06/07 00:30:54;;;;;;;14.68;6.22;;;;;;;;;;5028437;28;20104;-78
2023/06/07 00:33:21;;;;;;;15.95;5.53;;;;;;;;;;5027277;28;20076;-78
2023/06/07 00:35:47;;;;;;;13.15;5.90;;;;;;;;;;5052926;28;20052;-78
2023/06/07 00:38:13;;;;;;;12.68;5.60;;;;;;;;;;5053364;28;20071;-78
2023/06/07 00:40:39;;;;;;;17.20;6.57;;;;;;;;;;5034649;28;20124;-78
2023/06/07 00:43:05;;;;;;;12.75;5.53;;;;;;;;;;5032283;28;20132;-78
2023/06/07 00:45:31;;;;;;;27.27;6.35;;;;;;;;;;5033459;28;20125;-78
2023/06/07 00:47:57;;;;;;;13.98;5.25;;;;;;;;;;5015378;28;20492;-78
2023/06/07 00:50:23;;;;;;;12.73;5.18;;;;;;;;;;5033722;28;20110;-78
2023/06/07 00:52:50;;;;;;;11.63;5.35;;;;;;;;;;5032378;28;20503;-78
2023/06/07 00:55:16;;;;;;;12.55;5.38;;;;;;;;;;5033382;28;20041;-78
2023/06/07 00:57:42;;;;;;;13.73;5.38;;;;;;;;;;5034020;28;20391;-78
2023/06/07 01:00:13;;;;;;;15.68;5.90;;;;;;;;;;5030756;28;20045;-78
2023/06/07 01:02:39;;;;;;;19.38;6.63;;;;;;;;;;5033165;28;20113;-78
2023/06/07 01:05:06;;;;;;;11.60;5.63;;;;;;;;;;5011886;28;20046;-78
2023/06/07 01:07:32;;;;;;;12.82;5.85;;;;;;;;;;5013512;28;20136;-78
2023/06/07 01:10:02;;;;;;;11.55;5.18;;;;;;;;;;5013730;28;20038;-78
2023/06/07 01:12:28;;;;;;;13.35;5.20;;;;;;;;;;5013057;28;20503;-78
2023/06/07 01:14:55;;;;;;;10.80;4.78;;;;;;;;;;5032194;28;20170;-78
2023/06/07 01:17:26;;;;;;;15.25;5.57;;;;;;;;;;5033224;28;20121;-78
2023/06/07 01:19:53;;;;;;;10.80;5.22;;;;;;;;;;5048288;28;20514;-78
2023/06/07 01:22:24;;;;;;;12.88;4.95;;;;;;;;;;5053111;28;20045;-78
2023/06/07 01:24:52;;;;;;;10.90;4.65;;;;;;;;;;5041290;28;20041;-78
2023/06/07 01:27:21;;;;;;;17.70;5.20;;;;;;;;;;5033868;28;20049;-78
2023/06/07 01:29:48;;;;;;;9.90;4.32;;;;;;;;;;5026360;28;20052;-78
2023/06/07 01:32:15;;;;;;;14.82;4.80;;;;;;;;;;5012879;28;20418;-78
2023/06/07 01:34:42;;;;;;;14.00;5.03;;;;;;;;;;5023596;28;20417;-78
2023/06/07 01:37:08;;;;;;;10.00;4.82;;;;;;;;;;5033182;28;20451;-78
2023/06/07 01:39:34;;;;;;;10.60;5.05;;;;;;;;;;5009954;28;20077;-78
2023/06/07 01:42:00;;;;;;;12.05;4.78;;;;;;;;;;5013720;28;20100;-78
2023/06/07 01:44:27;;;;;;;11.50;4.68;;;;;;;;;;5029071;28;20053;-78
2023/06/07 01:46:53;;;;;;;12.68;4.50;;;;;;;;;;5036697;28;20056;-78
2023/06/07 01:49:19;;;;;;;10.50;3.67;;;;;;;;;;5035425;28;20124;-78
2023/06/07 01:51:46;;;;;;;10.45;4.28;;;;;;;;;;5017728;28;20054;-78
2023/06/07 01:54:13;;;;;;;15.50;4.95;;;;;;;;;;5016530;28;20042;-78
2023/06/07 01:56:55;;;;;;;15.43;5.15;;;;;;;;;;5015625;28;20046;-78
2023/06/07 01:59:30;;;;;;;12.30;5.47;;;;;;;;;;5021319;28;20129;-77
2023/06/07 02:02:23;;;;;;;11.27;4.90;;;;;;;;;;5039888;28;20041;-78
2023/06/07 02:04:51;;;;;;;13.35;4.70;;;;;;;;;;5021285;28;20053;-78
2023/06/07 02:07:22;;;;;;;16.88;4.88;;;;;;;;;;5032180;28;20061;-78
2023/06/07 02:09:48;;;;;;;12.55;5.18;;;;;;;;;;5043031;28;20395;-78
2023/06/07 02:12:15;;;;;;;12.65;5.60;;;;;;;;;;5036216;28;20406;-78
2023/06/07 02:14:42;;;;;;;10.10;5.18;;;;;;;;;;5022752;28;20119;-78
2023/06/07 02:17:09;;;;;;;10.65;4.78;;;;;;;;;;4998865;28;20125;-78
2023/06/07 02:19:35;;;;;;;11.38;4.97;;;;;;;;;;5018267;28;20037;-78
2023/06/07 02:22:02;;;;;;;12.80;5.38;;;;;;;;;;5035929;28;20157;-78
2023/06/07 02:24:28;;;;;;;12.95;4.78;;;;;;;;;;5034106;28;20092;-78
2023/06/07 02:26:55;;;;;;;14.93;6.68;;;;;;;;;;5035137;28;20049;-78
2023/06/07 02:29:21;;;;;;;14.45;5.60;;;;;;;;;;5035295;28;20397;-78
2023/06/07 02:31:51;;;;;;;13.18;5.50;;;;;;;;;;5035383;28;20137;-78
2023/06/07 02:34:17;;;;;;;13.55;5.20;;;;;;;;;;5035560;28;20081;-78
2023/06/07 02:36:44;;;;;;;11.25;6.00;;;;;;;;;;5034677;28;20096;-78
2023/06/07 02:39:10;;;;;;;11.73;6.60;;;;;;;;;;5033254;28;20069;-77
2023/06/07 02:41:37;;;;;;;12.80;6.25;;;;;;;;;;5053745;28;20127;-78
2023/06/07 02:44:03;;;;;;;15.07;7.32;;;;;;;;;;5049506;28;20068;-78
2023/06/07 02:46:29;;;;;;;11.85;7.00;;;;;;;;;;5055682;28;20048;-78
2023/06/07 02:48:55;;;;;;;13.60;6.32;;;;;;;;;;5054809;28;20049;-78
2023/06/07 02:51:21;;;;;;;12.50;5.05;;;;;;;;;;5055107;28;20056;-78
2023/06/07 02:53:49;;;;;;;10.68;4.85;;;;;;;;;;5051640;28;20084;-78
2023/06/07 02:56:15;;;;;;;10.15;4.35;;;;;;;;;;5034952;28;20511;-78
2023/06/07 02:58:41;;;;;;;7.70;3.75;;;;;;;;;;5035048;28;20128;-78
2023/06/07 03:01:08;;;;;;;9.10;3.83;;;;;;;;;;5032040;28;20049;-78
2023/06/07 03:03:35;;;;;;;9.73;3.97;;;;;;;;;;5035189;28;20062;-78
2023/06/07 03:06:02;;;;;;;8.93;4.30;;;;;;;;;;5034917;28;20124;-78
2023/06/07 03:08:28;;;;;;;10.20;4.50;;;;;;;;;;5017228;28;20041;-78
2023/06/07 03:10:54;;;;;;;12.10;5.03;;;;;;;;;;5034941;28;20464;-78
2023/06/07 03:13:20;;;;;;;9.07;4.50;;;;;;;;;;5017988;28;20108;-78
2023/06/07 03:15:47;;;;;;;11.75;4.90;;;;;;;;;;5033697;28;20095;-78
2023/06/07 03:18:15;;;;;;;11.45;4.78;;;;;;;;;;5034708;28;20553;-78
2023/06/07 03:20:41;;;;;;;12.00;4.72;;;;;;;;;;5034327;28;20110;-78
2023/06/07 03:23:08;;;;;;;10.38;5.88;;;;;;;;;;5041742;28;20518;-78
2023/06/07 03:25:35;;;;;;;14.35;4.93;;;;;;;;;;5040495;28;20124;-78
2023/06/07 03:28:01;;;;;;;10.90;5.45;;;;;;;;;;5054158;28;20075;-78
2023/06/07 03:30:27;;;;;;;14.93;6.80;;;;;;;;;;5041203;28;20072;-78
2023/06/07 03:32:53;;;;;;;11.15;5.97;;;;;;;;;;5014760;28;20034;-78
2023/06/07 03:35:19;;;;;;;12.90;6.80;;;;;;;;;;5033753;28;20042;-78
2023/06/07 03:37:45;;;;;;;13.85;7.05;;;;;;;;;;5033958;28;20037;-78
2023/06/07 03:40:11;;;;;;;10.38;6.30;;;;;;;;;;5031012;28;20068;-78
2023/06/07 03:42:38;;;;;;;13.95;6.68;;;;;;;;;;5032598;28;20077;-78
2023/06/07 03:45:04;;;;;;;14.63;7.10;;;;;;;;;;5033224;28;20403;-78
2023/06/07 03:47:30;;;;;;;10.35;6.85;;;;;;;;;;5034239;28;20038;-78
2023/06/07 03:49:56;;;;;;;14.98;6.55;;;;;;;;;;5021191;28;20033;-78
2023/06/07 03:52:22;;;;;;;10.45;5.25;;;;;;;;;;5047989;28;20387;-78
2023/06/07 03:54:48;;;;;;;10.68;5.70;;;;;;;;;;5050010;28;20491;-78
2023/06/07 03:57:14;;;;;;;12.02;5.82;;;;;;;;;;5053674;28;20045;-78
2023/06/07 03:59:41;;;;;;;13.60;4.40;;;;;;;;;;5050396;28;20071;-78
2023/06/07 04:02:07;;;;;;;9.82;4.18;;;;;;;;;;5042135;28;20426;-78
2023/06/07 04:04:33;;;;;;;8.60;4.03;;;;;;;;;;5048698;28;20049;-78
2023/06/07 04:07:02;;;;;;;8.82;4.43;;;;;;;;;;5053615;28;20076;-78
2023/06/07 04:09:28;;;;;;;10.40;4.97;;;;;;;;;;5052901;28;20063;-78
2023/06/07 04:11:54;;;;;;;10.43;4.88;;;;;;;;;;5033087;28;20041;-78
2023/06/07 04:14:20;;;;;;;10.25;4.63;;;;;;;;;;5012178;28;20380;-78
2023/06/07 04:16:46;;;;;;;9.63;4.28;;;;;;;;;;5042817;28;20488;-78
2023/06/07 04:19:12;;;;;;;9.80;4.47;;;;;;;;;;5053257;28;20434;-78
2023/06/07 04:21:39;;;;;;;12.95;4.45;;;;;;;;;;5039824;28;20094;-78
2023/06/07 04:24:05;;;;;;;8.40;4.00;;;;;;;;;;5012662;28;20046;-78
2023/06/07 04:26:31;;;;;;;13.95;4.78;;;;;;;;;;5029373;28;20407;-78
2023/06/07 04:28:58;;;;;;;12.07;4.38;;;;;;;;;;5033110;28;20499;-78
2023/06/07 04:31:29;;;;;;;10.70;4.38;;;;;;;;;;5037673;28;20092;-78
2023/06/07 04:34:01;;;;;;;14.32;4.78;;;;;;;;;;5052511;28;20048;-78
2023/06/07 04:36:30;;;;;;;15.45;4.43;;;;;;;;;;5039134;28;20053;-78
2023/06/07 04:38:56;;;;;;;9.55;3.97;;;;;;;;;;5013323;28;20061;-78
2023/06/07 04:41:30;;;;;;;9.98;4.20;;;;;;;;;;5031641;28;20037;-78
2023/06/07 04:43:56;;;;;;;13.13;4.90;;;;;;;;;;5034868;28;20058;-78
2023/06/07 04:46:22;;;;;;;8.23;4.38;;;;;;;;;;5012184;28;20060;-78
2023/06/07 04:48:48;;;;;;;9.15;4.35;;;;;;;;;;5019980;28;20053;-78
2023/06/07 04:51:14;;;;;;;10.77;4.93;;;;;;;;;;5022967;28;20490;-78
2023/06/07 04:53:42;;;;;;;11.48;4.97;;;;;;;;;;5039151;28;20479;-78
2023/06/07 04:56:08;;;;;;;11.45;5.10;;;;;;;;;;5050931;28;20056;-78
2023/06/07 04:58:36;;;;;;;14.63;5.72;;;;;;;;;;5051035;28;20150;-78
2023/06/07 05:01:03;;;;;;;12.93;4.28;;;;;;;;;;5037289;28;20056;-78
2023/06/07 05:03:31;;;;;;;12.75;4.82;;;;;;;;;;5032540;28;20123;-78
2023/06/07 05:06:02;;;;;;;12.60;4.80;;;;;;;;;;5044016;28;20114;-78
2023/06/07 05:08:28;;;;;;;10.45;4.55;;;;;;;;;;5052897;28;20055;-78
2023/06/07 05:10:54;;;;;;;8.73;4.30;;;;;;;;;;5039024;28;20042;-78
2023/06/07 05:13:20;;;;;;;11.52;4.40;;;;;;;;;;5022331;28;20047;-78
2023/06/07 05:15:50;;;;;;;21.85;5.35;;;;;;;;;;5032805;28;20052;-78
2023/06/07 05:18:19;;;;;;;16.13;5.13;;;;;;;;;;5039031;28;20050;-78
2023/06/07 05:20:46;;;;;;;12.25;4.40;;;;;;;;;;5041074;28;20053;-78
2023/06/07 05:23:16;;;;;;;23.77;5.50;;;;;;;;;;5046314;28;20049;-78
2023/06/07 05:25:43;;;;;;;16.45;4.47;;;;;;;;;;5041703;28;20045;-78
2023/06/07 05:28:09;;;;;;;8.75;4.80;;;;;;;;;;5017553;28;20129;-78
2023/06/07 05:30:35;;;;;;;9.48;4.82;;;;;;;;;;5022619;28;20054;-78
2023/06/07 05:33:01;;;;;;;14.32;4.82;;;;;;;;;;5055671;28;20568;-78
2023/06/07 05:35:27;;;;;;;11.32;4.60;;;;;;;;;;5052894;28;20575;-78
2023/06/07 05:37:53;;;;;;;8.63;4.13;;;;;;;;;;5056302;28;20123;-78
2023/06/07 05:40:20;;;;;;;13.70;4.95;;;;;;;;;;5042899;28;20046;-78
2023/06/07 05:42:49;;;;;;;6.57;4.10;;;;;;;;;;5036638;28;20049;-78
2023/06/07 05:45:15;;;;;;;10.10;4.40;;;;;;;;;;5037262;28;20080;-78
2023/06/07 05:47:43;;;;;;;10.73;4.55;;;;;;;;;;5034270;28;20053;-78
2023/06/07 05:50:10;;;;;;;10.02;4.10;;;;;;;;;;5048949;28;20056;-78
2023/06/07 05:52:37;;;;;;;14.80;4.25;;;;;;;;;;5038498;28;20037;-78
2023/06/07 05:55:03;;;;;;;13.65;4.40;;;;;;;;;;5038194;28;21390;-79
2023/06/07 05:57:29;;;;;;;9.52;4.10;;;;;;;;;;5040829;28;20116;-78
2023/06/07 05:59:56;;;;;;;13.57;5.65;;;;;;;;;;5047922;28;20150;-79
2023/06/07 06:02:23;;;;;;;8.95;4.15;;;;;;;;;;5035080;28;20065;-78
2023/06/07 06:04:51;;;;;;;12.35;4.90;;;;;;;;;;5036194;28;20056;-78
2023/06/07 06:07:18;;;;;;;9.63;4.80;;;;;;;;;;5035097;28;20045;-78
2023/06/07 06:09:44;;;;;;;13.57;5.07;;;;;;;;;;5048818;28;20114;-78
2023/06/07 06:12:10;;;;;;;10.23;5.25;;;;;;;;;;5036715;28;20053;-78
2023/06/07 06:14:37;;;;;;;10.20;4.93;;;;;;;;;;5036897;28;20129;-78
2023/06/07 06:17:03;;;;;;;11.68;4.85;;;;;;;;;;5036191;28;20212;-78
2023/06/07 06:19:29;;;;;;;9.98;4.43;;;;;;;;;;5050268;28;20052;-78
2023/06/07 06:21:55;;;;;;;9.18;4.40;;;;;;;;;;5039006;28;20042;-78
2023/06/07 06:24:21;;;;;;;13.23;5.22;;;;;;;;;;5033365;28;20052;-78
2023/06/07 06:26:47;;;;;;;8.45;4.53;;;;;;;;;;5035588;28;20072;-78
2023/06/07 06:29:13;;;;;;;11.27;4.80;;;;;;;;;;5047173;28;20080;-78
2023/06/07 06:31:43;;;;;;;10.88;4.65;;;;;;;;;;5039375;28;20475;-78
2023/06/07 06:34:12;;;;;;;10.07;4.57;;;;;;;;;;5041151;28;20144;-78
2023/06/07 06:36:38;;;;;;;12.18;4.72;;;;;;;;;;5038726;28;20057;-78
2023/06/07 06:39:04;;;;;;;8.35;4.50;;;;;;;;;;5028975;28;20057;-78
2023/06/07 06:41:30;;;;;;;14.88;5.00;;;;;;;;;;5035741;28;20053;-78
2023/06/07 06:43:57;;;;;;;12.05;4.60;;;;;;;;;;5030490;28;20162;-78
2023/06/07 06:46:23;;;;;;;11.18;5.40;;;;;;;;;;5043780;28;20098;-78
2023/06/07 06:48:49;;;;;;;9.68;4.75;;;;;;;;;;5036048;28;20073;-78
2023/06/07 06:51:16;;;;;;;10.73;5.03;;;;;;;;;;5023368;28;20045;-78
2023/06/07 06:53:42;;;;;;;10.52;4.68;;;;;;;;;;5035242;28;20145;-78
2023/06/07 06:56:08;;;;;;;10.52;4.70;;;;;;;;;;5053702;28;20052;-78
2023/06/07 06:58:34;;;;;;;10.27;4.95;;;;;;;;;;5051927;28;20446;-78
2023/06/07 07:01:05;;;;;;;10.15;4.63;;;;;;;;;;5044874;28;20095;-78
2023/06/07 07:03:31;;;;;;;8.13;4.50;;;;;;;;;;5031504;28;20033;-79
2023/06/07 07:05:57;;;;;;;11.27;4.57;;;;;;;;;;5021460;28;20041;-77
2023/06/07 07:08:24;;;;;;;10.32;5.18;;;;;;;;;;5034471;28;20048;-78
2023/06/07 07:10:50;;;;;;;12.02;4.90;;;;;;;;;;5039703;28;20072;-78
2023/06/07 07:13:16;;;;;;;17.45;5.07;;;;;;;;;;5033816;28;20041;-78
2023/06/07 07:15:42;;;;;;;7.30;4.05;;;;;;;;;;5028665;28;20487;-78
2023/06/07 07:18:08;;;;;;;11.57;4.57;;;;;;;;;;5033522;28;20056;-78
2023/06/07 07:20:34;;;;;;;8.18;4.85;;;;;;;;;;5033860;28;20076;-78
2023/06/07 07:23:02;;;;;;;12.05;5.35;;;;;;;;;;5038413;28;20470;-78
2023/06/07 07:25:28;;;;;;;11.55;5.00;;;;;;;;;;5031164;28;20128;-81
2023/06/07 07:27:55;;;;;;;12.20;4.65;;;;;;;;;;5033870;28;20049;-78
2023/06/07 07:30:21;;;;;;;16.02;5.00;;;;;;;;;;5004631;28;1108866;-79
2023/06/07 07:32:47;;;;;;;8.52;4.90;;;;;;;;;;5058928;28;20051;-79
2023/06/07 07:35:13;;;;;;;12.43;4.47;;;;;;;;;;5045319;28;20044;-77
2023/06/07 07:37:39;;;;;;;9.32;5.20;;;;;;;;;;5032571;28;20068;-78
2023/06/07 07:40:08;;;;;;;12.55;5.65;;;;;;;;;;5016318;28;20077;-78
2023/06/07 07:42:34;;;;;;;9.38;4.72;;;;;;;;;;5035674;28;20159;-79
2023/06/07 07:45:00;;;;;;;9.30;4.93;;;;;;;;;;5043482;28;20087;-80
2023/06/07 07:47:26;;;;;;;9.77;4.75;;;;;;;;;;5023010;28;20046;-81
2023/06/07 07:49:53;;;;;;;7.25;4.47;;;;;;;;;;5038180;28;20044;-80
2023/06/07 07:52:19;;;;;;;11.48;5.05;;;;;;;;;;5040484;28;20049;-80
2023/06/07 07:54:46;;;;;;;10.85;5.32;;;;;;;;;;5042076;28;20072;-81
2023/06/07 07:57:12;;;;;;;10.05;4.97;;;;;;;;;;5048862;28;20054;-85
2023/06/07 07:59:38;;;;;;;10.57;4.93;;;;;;;;;;5047865;28;20435;-80
2023/06/07 08:02:04;;;;;;;12.88;5.70;;;;;;;;;;5034539;28;20506;-80
2023/06/07 08:04:30;;;;;;;11.63;5.30;;;;;;;;;;5034478;28;20038;-80
2023/06/07 08:06:56;;;;;;;8.70;4.82;;;;;;;;;;5034559;28;20041;-80
2023/06/07 08:09:23;;;;;;;12.35;5.53;;;;;;;;;;5038133;28;20523;-80
2023/06/07 08:11:49;;;;;;;11.52;5.53;;;;;;;;;;5017963;28;20084;-81
2023/06/07 08:14:15;;;;;;;11.20;6.28;;;;;;;;;;5036174;28;20060;-79
2023/06/07 08:16:41;;;;;;;11.60;5.65;;;;;;;;;;5037336;28;20038;-79
2023/06/07 08:19:08;;;;;;;13.00;4.95;;;;;;;;;;5043672;28;20145;-79
2023/06/07 08:21:35;;;;;;;11.20;6.32;;;;;;;;;;5021631;28;20046;-80
2023/06/07 08:24:01;;;;;;;9.40;4.88;;;;;;;;;;5045797;28;20073;-80
2023/06/07 08:26:27;;;;;;;13.43;5.93;;;;;;;;;;5045585;28;20041;-79
2023/06/07 08:28:54;;;;;;;13.15;6.10;;;;;;;;;;5035195;28;20045;-80
2023/06/07 08:31:22;;;;;;;9.77;5.53;;;;;;;;;;5042764;28;20088;-80
2023/06/07 08:33:49;;;;;;;9.43;4.53;;;;;;;;;;5034720;28;20040;-81
2023/06/07 08:36:15;;;;;;;11.85;6.15;;;;;;;;;;5029761;28;20057;-81
2023/06/07 08:38:42;;;;;;;13.63;5.97;;;;;;;;;;5049847;28;20056;-81
2023/06/07 08:41:09;;;;;;;8.27;5.13;;;;;;;;;;5043009;28;20049;-80
2023/06/07 08:43:36;;;;;;;11.25;5.78;;;;;;;;;;5052508;28;20097;-79
2023/06/07 08:46:06;;;;;;;12.57;5.85;;;;;;;;;;5042456;28;20030;-79
2023/06/07 08:48:35;;;;;;;12.65;5.90;;;;;;;;;;5051978;28;20033;-79
2023/06/07 08:51:02;;;;;;;11.27;5.28;;;;;;;;;;5052440;28;20045;-79
2023/06/07 08:53:29;;;;;;;10.95;5.35;;;;;;;;;;5049850;28;20118;-79
2023/06/07 08:55:56;;;;;;;14.50;6.18;;;;;;;;;;5051753;28;20046;-79
2023/06/07 08:58:24;;;;;;;13.75;6.85;;;;;;;;;;5044470;28;20069;-79
2023/06/07 09:00:51;;;;;;;11.00;6.07;;;;;;;;;;5046860;28;20040;-79
2023/06/07 09:03:17;;;;;;;10.82;5.90;;;;;;;;;;5057102;28;20045;-79
2023/06/07 09:05:43;;;;;;;11.75;5.10;;;;;;;;;;5039773;28;20052;-80
2023/06/07 09:08:09;;;;;;;13.10;5.38;;;;;;;;;;5037801;28;20056;-79
2023/06/07 09:10:35;;;;;;;13.00;5.57;;;;;;;;;;5033827;28;20100;-79
2023/06/07 09:13:01;;;;;;;8.40;4.90;;;;;;;;;;5036417;28;20041;-79
2023/06/07 09:15:28;;;;;;;11.98;5.53;;;;;;;;;;5015357;28;20104;-80
2023/06/07 09:17:58;;;;;;;10.57;5.40;;;;;;;;;;5046652;28;20471;-81
2023/06/07 09:20:28;;;;;;;10.55;5.78;;;;;;;;;;5038244;28;20041;-81
2023/06/07 09:22:58;;;;;;;10.63;5.72;;;;;;;;;;5022946;28;20100;-83
2023/06/07 09:25:25;;;;;;;9.65;5.40;;;;;;;;;;5037768;28;20067;-80
2023/06/07 09:27:51;;;;;;;10.50;4.97;;;;;;;;;;5031028;28;20091;-80
2023/06/07 09:30:18;;;;;;;9.48;5.05;;;;;;;;;;5035631;28;20528;-82
2023/06/07 09:32:44;;;;;;;11.23;5.03;;;;;;;;;;5035179;28;20050;-80
2023/06/07 09:35:18;;;;;;;9.13;5.65;;;;;;;;;;5026960;28;20505;-80
2023/06/07 09:37:59;;;;;;;12.05;6.15;;;;;;;;;;5033822;28;20052;-80
2023/06/07 09:40:25;;;;;;;11.88;5.75;;;;;;;;;;5035775;28;20050;-83
2023/06/07 09:43:01;;;;;;;10.88;5.47;;;;;;;;;;5036870;28;20045;-81
2023/06/07 09:45:28;;;;;;;10.38;6.18;;;;;;;;;;5036133;28;20418;-80
2023/06/07 09:48:01;;;;;;;10.98;5.18;;;;;;;;;;5040841;28;20044;-80
2023/06/07 09:50:29;;;;;;;11.55;5.47;;;;;;;;;;5024837;28;20049;-79
2023/06/07 09:53:01;;;;;;;10.85;6.40;;;;;;;;;;5017822;28;20073;-82
2023/06/07 09:55:28;;;;;;;18.50;6.88;;;;;;;;;;5021710;28;20060;-86
2023/06/07 09:57:55;;;;;;;12.90;6.35;;;;;;;;;;5022644;28;20404;-81
2023/06/07 10:00:21;;;;;;;10.52;6.38;;;;;;;;;;5033725;28;20531;-81
2023/06/07 10:02:49;;;;;;;13.35;7.60;;;;;;;;;;5022993;28;20112;-82
2023/06/07 10:05:15;;;;;;;11.90;6.13;;;;;;;;;;5030560;28;20562;-82
2023/06/07 10:08:00;;;;;;;8.85;5.60;;;;;;;;;;5029807;28;20423;-83
2023/06/07 10:10:27;;;;;;;12.15;6.07;;;;;;;;;;5006474;28;20045;-83
2023/06/07 10:12:54;;;;;;;11.32;5.95;;;;;;;;;;5027191;28;20104;-82
2023/06/07 10:15:24;;;;;;;14.40;5.95;;;;;;;;;;5038581;28;20038;-82
2023/06/07 10:17:56;;;;;;;10.30;6.80;;;;;;;;;;5027905;28;20068;-81
2023/06/07 10:20:30;;;;;;;11.30;6.90;;;;;;;;;;5021014;28;20042;-81
2023/06/07 10:22:59;;;;;;;10.15;5.15;;;;;;;;;;5030378;28;20503;-80
2023/06/07 10:25:27;;;;;;;11.10;7.00;;;;;;;;;;5027147;28;20152;-81
2023/06/07 10:28:05;;;;;;;15.27;6.45;;;;;;;;;;5031331;28;20045;-82
2023/06/07 10:30:32;;;;;;;15.07;5.97;;;;;;;;;;5053546;28;20052;-81
2023/06/07 10:32:59;;;;;;;13.90;6.43;;;;;;;;;;5042328;28;20175;-81
2023/06/07 10:35:25;;;;;;;15.13;6.93;;;;;;;;;;5054757;28;20124;-82
2023/06/07 10:37:53;;;;;;;11.57;6.22;;;;;;;;;;5049053;28;20449;-81
2023/06/07 10:40:19;;;;;;;11.27;6.00;;;;;;;;;;5039597;28;20060;-82
2023/06/07 10:42:46;;;;;;;8.93;5.38;;;;;;;;;;5034004;28;20069;-82
2023/06/07 10:45:26;;;;;;;9.63;5.35;;;;;;;;;;5030304;28;20095;-87
2023/06/07 10:47:52;;;;;;;9.82;5.57;;;;;;;;;;5037275;28;20037;-81
2023/06/07 10:50:27;;;;;;;12.10;5.85;;;;;;;;;;5048931;28;20049;-81
2023/06/07 10:52:56;;;;;;;14.13;6.33;;;;;;;;;;5042212;28;20038;-81
2023/06/07 10:55:31;;;;;;;11.60;6.35;;;;;;;;;;5025251;28;20479;-81
2023/06/07 10:57:57;;;;;;;15.50;7.30;;;;;;;;;;5029841;28;20042;-81
2023/06/07 11:00:25;;;;;;;14.32;6.10;;;;;;;;;;5038472;28;20174;-81
2023/06/07 11:02:51;;;;;;;10.50;5.55;;;;;;;;;;5047180;28;20045;-81
2023/06/07 11:05:23;;;;;;;12.95;6.88;;;;;;;;;;5034290;28;20042;-82
2023/06/07 11:08:09;;;;;;;11.13;7.07;;;;;;;;;;5046355;28;20057;-82
2023/06/07 11:10:35;;;;;;;12.45;6.93;;;;;;;;;;5053560;28;20041;-81
2023/06/07 11:13:01;;;;;;;12.55;6.65;;;;;;;;;;5045594;28;20045;-81
2023/06/07 11:15:35;;;;;;;14.63;6.50;;;;;;;;;;5068588;28;20052;-81
2023/06/07 11:18:08;;;;;;;14.38;6.22;;;;;;;;;;5055366;28;20100;-81
2023/06/07 11:20:37;;;;;;;14.40;6.18;;;;;;;;;;5042651;28;20049;-81
2023/06/07 11:23:22;;;;;;;10.80;5.68;;;;;;;;;;5042705;28;20077;-81
2023/06/07 11:25:48;;;;;;;10.93;5.18;;;;;;;;;;5048797;28;20041;-82
2023/06/07 11:28:18;;;;;;;12.57;5.43;;;;;;;;;;5041256;28;20045;-82
2023/06/07 11:30:44;;;;;;;11.70;5.38;;;;;;;;;;5043347;28;20121;-81
2023/06/07 11:33:17;;;;;;;10.77;5.57;;;;;;;;;;5047203;28;20053;-82
2023/06/07 11:35:43;;;;;;;9.02;5.15;;;;;;;;;;5051013;28;20040;-81
2023/06/07 11:38:09;;;;;;;10.40;5.70;;;;;;;;;;5044988;28;20057;-82
2023/06/07 11:40:36;;;;;;;13.02;6.03;;;;;;;;;;5044865;28;20064;-82
2023/06/07 11:43:02;;;;;;;15.40;5.55;;;;;;;;;;5048484;28;20038;-81
2023/06/07 11:45:29;;;;;;;8.52;4.90;;;;;;;;;;5055751;28;20037;-81
2023/06/07 11:47:57;;;;;;;11.35;5.82;;;;;;;;;;5048461;28;20112;-82
2023/06/07 11:50:23;;;;;;;11.90;5.72;;;;;;;;;;5034288;28;20046;-81
2023/06/07 11:52:50;;;;;;;10.32;6.03;;;;;;;;;;5034312;28;20037;-82
2023/06/07 11:55:18;;;;;;;17.38;6.00;;;;;;;;;;5047535;28;20072;-81
2023/06/07 11:57:48;;;;;;;12.68;5.93;;;;;;;;;;5048311;28;20060;-82
2023/06/07 12:00:18;;;;;;;10.13;5.50;;;;;;;;;;5035856;28;20059;-82
2023/06/07 12:02:45;;;;;;;9.77;5.97;;;;;;;;;;5051842;28;20042;-82
2023/06/07 12:05:15;;;;;;;9.50;6.07;;;;;;;;;;5045790;28;20045;-82
2023/06/07 12:07:42;;;;;;;8.88;5.72;;;;;;;;;;5028367;28;20176;-82
2023/06/07 12:10:23;;;;;;;12.55;6.00;;;;;;;;;;5051179;28;20056;-81
2023/06/07 12:13:04;;;;;;;13.57;6.32;;;;;;;;;;5040364;28;20053;-82
2023/06/07 12:15:32;;;;;;;11.65;6.50;;;;;;;;;;5050044;28;20076;-81
2023/06/07 12:17:58;;;;;;;16.60;6.68;;;;;;;;;;5050245;28;20042;-81
2023/06/07 12:20:25;;;;;;;10.32;5.38;;;;;;;;;;5052176;28;20042;-82
2023/06/07 12:22:51;;;;;;;14.77;6.95;;;;;;;;;;5044851;28;20056;-82
2023/06/07 12:25:21;;;;;;;12.15;7.15;;;;;;;;;;5048005;28;20045;-82
2023/06/07 12:27:47;;;;;;;13.82;7.00;;;;;;;;;;5043895;28;20081;-81
2023/06/07 12:30:14;;;;;;;12.07;6.50;;;;;;;;;;5041538;28;20108;-82
2023/06/07 12:32:40;;;;;;;10.88;5.72;;;;;;;;;;5025118;28;20119;-82
2023/06/07 12:35:06;;;;;;;13.57;6.32;;;;;;;;;;5025773;28;20096;-81
2023/06/07 12:37:35;;;;;;;8.82;5.65;;;;;;;;;;5063318;28;20036;-81
2023/06/07 12:40:04;;;;;;;11.38;5.93;;;;;;;;;;5041516;28;20038;-81
2023/06/07 12:42:30;;;;;;;12.40;6.03;;;;;;;;;;5051092;28;20049;-80
2023/06/07 12:44:56;;;;;;;10.13;5.13;;;;;;;;;;5040310;28;20045;-81
2023/06/07 12:47:22;;;;;;;14.73;6.63;;;;;;;;;;5035519;28;20152;-81
2023/06/07 12:49:48;;;;;;;12.88;6.93;;;;;;;;;;5044668;28;20557;-81
2023/06/07 12:52:15;;;;;;;10.70;5.78;;;;;;;;;;5040298;28;20097;-81
2023/06/07 12:54:43;;;;;;;11.77;5.90;;;;;;;;;;5037576;28;20056;-80
2023/06/07 12:57:09;;;;;;;11.13;6.10;;;;;;;;;;5027114;28;20093;-81
2023/06/07 12:59:35;;;;;;;10.45;6.60;;;;;;;;;;5040930;28;20046;-81
2023/06/07 13:02:01;;;;;;;11.23;5.97;;;;;;;;;;5032719;28;20061;-80
2023/06/07 13:04:27;;;;;;;17.20;6.15;;;;;;;;;;5033816;28;20041;-81
2023/06/07 13:06:53;;;;;;;11.55;5.82;;;;;;;;;;5036865;28;20045;-81
2023/06/07 13:09:20;;;;;;;14.43;7.60;;;;;;;;;;5045442;28;20046;-80
2023/06/07 13:11:46;;;;;;;24.38;7.10;;;;;;;;;;5021396;28;20042;-81
2023/06/07 13:14:13;;;;;;;12.98;6.15;;;;;;;;;;5029064;28;20046;-79
2023/06/07 13:16:39;;;;;;;10.70;5.70;;;;;;;;;;5020484;28;20049;-81
2023/06/07 13:19:05;;;;;;;10.48;6.07;;;;;;;;;;5032581;28;20052;-79
2023/06/07 13:21:31;;;;;;;13.23;6.00;;;;;;;;;;5020931;28;20044;-79
2023/06/07 13:23:58;;;;;;;14.98;6.63;;;;;;;;;;5023732;28;20096;-80
2023/06/07 13:26:24;;;;;;;11.55;6.13;;;;;;;;;;5017045;28;20046;-80
2023/06/07 13:28:50;;;;;;;10.70;6.32;;;;;;;;;;5041143;28;20060;-82
2023/06/07 13:31:16;;;;;;;11.65;6.53;;;;;;;;;;5014000;28;20054;-82
2023/06/07 13:33:43;;;;;;;16.02;8.10;;;;;;;;;;5033182;28;20042;-82
2023/06/07 13:36:09;;;;;;;13.50;7.50;;;;;;;;;;5034216;28;20053;-82
2023/06/07 13:38:37;;;;;;;12.40;7.15;;;;;;;;;;5033317;28;20481;-82
2023/06/07 13:41:03;;;;;;;11.00;5.68;;;;;;;;;;5020211;28;20056;-82
2023/06/07 13:43:29;;;;;;;13.00;5.70;;;;;;;;;;5034128;28;20061;-81
2023/06/07 13:45:55;;;;;;;11.57;6.47;;;;;;;;;;5033230;28;20045;-81
2023/06/07 13:48:21;;;;;;;8.52;5.88;;;;;;;;;;5028993;28;20052;-80
2023/06/07 13:50:48;;;;;;;12.43;7.13;;;;;;;;;;5019014;28;20053;-80
2023/06/07 13:53:17;;;;;;;14.80;6.82;;;;;;;;;;5019070;28;20124;-81
2023/06/07 13:55:44;;;;;;;14.65;7.13;;;;;;;;;;5028204;28;20051;-85
2023/06/07 13:58:10;;;;;;;19.70;7.25;;;;;;;;;;5036654;28;20053;-81
2023/06/07 14:00:36;;;;;;;12.75;6.40;;;;;;;;;;5022422;28;20117;-81
2023/06/07 14:03:03;;;;;;;13.55;7.40;;;;;;;;;;5030287;28;20052;-81
2023/06/07 14:05:29;;;;;;;10.02;6.85;;;;;;;;;;5037129;28;20100;-79
2023/06/07 14:07:55;;;;;;;12.60;6.60;;;;;;;;;;5030713;28;20049;-82
2023/06/07 14:10:21;;;;;;;14.55;6.47;;;;;;;;;;5058542;28;20048;-81
2023/06/07 14:12:47;;;;;;;11.15;5.63;;;;;;;;;;5030627;28;20488;-81
2023/06/07 14:15:13;;;;;;;13.82;7.47;;;;;;;;;;5039221;28;20050;-82
2023/06/07 14:17:40;;;;;;;11.82;7.20;;;;;;;;;;5036650;28;20111;-82
2023/06/07 14:20:07;;;;;;;11.85;5.63;;;;;;;;;;5035089;28;20099;-80
2023/06/07 14:22:33;;;;;;;14.52;6.10;;;;;;;;;;5035837;28;20441;-80
2023/06/07 14:24:59;;;;;;;11.00;5.70;;;;;;;;;;5037309;28;20065;-80
2023/06/07 14:27:25;;;;;;;16.55;6.75;;;;;;;;;;5037372;28;20463;-80
2023/06/07 14:29:51;;;;;;;10.57;5.93;;;;;;;;;;5036511;28;20129;-81
2023/06/07 14:32:17;;;;;;;14.00;7.05;;;;;;;;;;5030500;28;20058;-81